Aeroporto :
LOGIN :

Iscrizione | Disclaimer

   EN    FR    IT 

 










Sommario :    VFR   VFR Marginale   IFR   IFR Intensivo   IFR Molto Intensivo
Visibilità : 
Base nubi : 
>= 8 km
>= 3000ft
5 / 8 km
1000 / 3000 ft
1500m / 5 km
500 / 1000 ft
800 / 1500m
200 / 500 ft
< 800m
< 200 ft
Simboli :   Temporali  Nebbia  Neve Forte  Precipitazioni Forti  Vento > 20 kt
SIGMETs :   Varie  Temporali  Ghiacco  Turbolenza  Onda orograficha  Ceneri Vulcaniche







- Altitudine del aeroporto : 650 ft
- Codice IATA : ZJI


LSZL - Locarno

ULTIMO METAR :
  • 192020Z AUTO VRB01KT 9999NDV NCD 11/06 Q1028 RMK

METARs OBSOLETI :
  • 191950Z AUTO 00000KT 9999NDV NCD 12/07 Q1028 RMK
  • 191920Z AUTO 00000KT 9999NDV NCD 13/07 Q1028 RMK
  • 191850Z AUTO 00000KT 9999NDV NCD 14/07 Q1028 RMK
  • 191820Z AUTO 00000KT 9999NDV NCD 15/07 Q1027 RMK
  • 191750Z AUTO VRB02KT 9999NDV NCD 17/06 Q1027 RMK

TAF TAF LSZL
Valido dal 19 a 18 ore il 20 a 03 ore UTC


191725Z 1918/2003 VRB02KT 9999 FEW080
BECMG 1918/1921 CAVOK
Nessun NOTAM noto per questo aeroporto.



MetMap, La meteo Aeronautica in un colpo d'occhio ! - Copyright ORBIFLY Dicembre 2007 - Disclaimer

ORBIFLY MET'MAP TEAM :

Programmazione e sviluppo : Alexandra Zaïnal
Concezione e sviluppo : Baudouin d'Aumeries
Co-Programmazione e sviluppo : Marc-Olivier Méhu
Supporto tecnico e logistico : Manuel Goepfert
Aiuto per la traduzione : Arnaldo La Scala

Contatto : metmap@orbifly.com




FONTI E CREDITI :

   NOAA